• Join FlightAware (Why Join?)
  • Login
  • US Flag 
10:42PM EDT


 

Airport Tracker/Info


-or-


 

Live Flight TrackerFlight Track Log ✈ N9484P ✈ 28-Aug-2013 ✈ KEYE - K24

Flight Track Log - Related Links

Times and Time Zones

All times are in EDT time to prevent confusion due to time zone crossing. See the N9484P flight status page for this flight to view local times or setup timezone preferences in your user account.

Time Position Orientation Groundspeed Altitude Reporting Facility
EDT Latitude Longitude Course Direction KTS MPH feet Rate Location/Type
03:44PM 39.8500 -86.2833 90° East 100 115 1,200  Level Indianapolis TRACON
03:44PM 39.8500 -86.2667 90° East 100 115 1,600 840 Climbing Indianapolis TRACON
03:45PM 39.8667 -86.2833 322° Northwest 92 106 2,500 900 Climbing Indianapolis TRACON
03:46PM 39.8689 -86.3025 279° West 101 116 3,000 660 Climbing Indianapolis Center
03:47PM 39.8639 -86.3358 259° West 97 112 3,600 420 Climbing Indianapolis Center
03:48PM 39.8597 -86.3800 263° West 101 116 3,900 480 Climbing Indianapolis Center
03:49PM 39.8558 -86.4244 264° West 118 136 4,700 720 Climbing Indianapolis Center
03:50PM 39.8481 -86.4586 253° West 110 127 5,500 600 Climbing Indianapolis Center
03:51PM 39.8369 -86.4922 247° West 107 123 6,000 240 Climbing Indianapolis Center
03:52PM 39.7928 -86.4786 167° South 149 171 6,000  Level Indianapolis Center
03:53PM 39.7375 -86.4503 158° South 176 203 6,000  Level Indianapolis Center
03:54PM 39.6914 -86.4256 158° South 180 207 6,000  Level Indianapolis Center
03:55PM 39.6453 -86.4036 160° South 180 207 6,000  Level Indianapolis Center
03:56PM 39.6003 -86.3800 158° South 178 205 6,000  Level Indianapolis Center
03:57PM 39.5456 -86.3519 158° South 177 204 6,000  Level Indianapolis Center
03:58PM 39.4989 -86.3289 159° South 179 206 6,000  Level Indianapolis Center
03:59PM 39.4533 -86.3053 158° South 177 204 6,000  Level Indianapolis Center
04:00PM 39.4072 -86.2817 158° South 179 206 6,000  Level Indianapolis Center
04:01PM 39.3611 -86.2594 160° South 178 205 6,000  Level Indianapolis Center
04:02PM 39.3061 -86.2386 164° South 177 204 6,000  Level Indianapolis Center
04:03PM 39.2589 -86.2344 176° South 172 198 6,100  Climbing Indianapolis Center
04:04PM 39.2108 -86.2267 173° South 173 199 6,000 -60 Descending Indianapolis Center
04:05PM 39.1703 -86.1892 144° Southeast 181 208 6,000  Level Indianapolis Center
04:06PM 39.1292 -86.1556 148° Southeast 179 206 6,000  Level Indianapolis Center
04:07PM 39.0861 -86.1214 148° Southeast 181 208 6,000 180 Level Indianapolis Center
04:08PM 39.0328 -86.0922 157° South 178 205 6,400 420 Climbing Indianapolis Center
04:10PM 38.9936 -86.0706 157° South 166 191 6,900 420 Climbing Indianapolis Center
04:11PM 38.9547 -86.0508 158° South 157 181 7,300 420 Climbing Indianapolis Center
04:12PM 38.9139 -86.0342 162° South 153 176 7,800 480 Climbing Indianapolis Center
04:13PM 38.8722 -86.0128 158° South 157 181 8,300 420 Climbing Indianapolis Center
04:14PM 38.8331 -85.9936 159° South 152 175 8,700 240 Climbing Indianapolis Center
04:15PM 38.7828 -85.9672 158° South 159 183 8,900 120 Climbing Indianapolis Center
04:16PM 38.7378 -85.9447 159° South 169 194 9,000  Climbing Indianapolis Center
04:17PM 38.6914 -85.9214 159° South 176 203 9,000  Level Indianapolis Center
04:18PM 38.6464 -85.8986 158° South 174 200 9,000 -60 Level Indianapolis Center
04:19PM 38.6008 -85.8772 160° South 173 199 8,900 -60 Descending Indianapolis Center
04:20PM 38.5564 -85.8536 157° South 172 198 8,900  Level Indianapolis Center
04:21PM 38.5108 -85.8325 160° South 173 199 8,900  Level Indianapolis Center
04:22PM 38.4578 -85.8056 158° South 171 197 8,900  Level Indianapolis Center
04:23PM 38.4133 -85.7833 159° South 171 197 8,900  Level Indianapolis Center
04:24PM 38.3689 -85.7611 159° South 171 197 8,900  Level Indianapolis Center
04:25PM 38.3222 -85.7381 159° South 177 204 8,900  Level Indianapolis Center
04:26PM 38.2758 -85.7150 159° South 178 205 8,900  Level Indianapolis Center
04:27PM 38.2297 -85.6928 159° South 176 203 8,900  Level Indianapolis Center
04:28PM 38.1833 -85.6719 161° South 176 203 8,900  Level Indianapolis Center
04:29PM 38.1289 -85.6425 157° South 176 203 8,900  Level Indianapolis Center
04:30PM 38.0822 -85.6214 160° South 175 201 8,900  Level Indianapolis Center
04:31PM 38.0350 -85.5978 159° South 180 207 8,900  Level Indianapolis Center
04:32PM 37.9881 -85.5747 159° South 180 207 8,900  Level Indianapolis Center
04:33PM 37.9431 -85.5531 159° South 175 201 8,900  Level Indianapolis Center
04:34PM 37.8964 -85.5308 159° South 176 203 8,900  Level Indianapolis Center
04:35PM 37.8506 -85.5078 158° South 177 204 8,900  Level Indianapolis Center
04:36PM 37.7975 -85.4831 160° South 176 203 8,900  Level Indianapolis Center
04:37PM 37.7528 -85.4611 159° South 174 200 8,900  Level Indianapolis Center
04:38PM 37.7075 -85.4386 159° South 174 200 8,900  Level Indianapolis Center
04:40PM 37.6561 -85.4117 157° South 171 197 8,900  Level Indianapolis Center
04:41PM 37.6106 -85.3919 161° South 172 198 8,900 -240 Level Indianapolis Center
04:42PM 37.5639 -85.3694 159° South 178 205 8,500 -480 Descending Indianapolis Center
04:43PM 37.5153 -85.3464 159° South 184 212 8,000 -540 Descending Indianapolis Center
04:44PM 37.4686 -85.3233 159° South 179 206 7,500 -600 Descending Indianapolis Center
04:45PM 37.4225 -85.3011 159° South 177 204 6,800 -720 Descending Indianapolis Center
04:46PM 37.3689 -85.2753 159° South 177 204 6,100 -600 Descending Indianapolis Center
04:47PM 37.3239 -85.2528 158° South 175 201 5,600 -540 Descending Indianapolis Center
04:48PM 37.2811 -85.2317 159° South 169 194 5,100 -540 Descending Indianapolis Center
04:49PM 37.2369 -85.2122 161° South 168 193 4,500 -600 Descending Indianapolis Center
04:50PM 37.1917 -85.1906 159° South 171 197 3,900 -600 Descending Indianapolis Center